createdAt,value
2023-03-12T00:01:18.890Z,29.52
2023-03-12T00:03:45.642Z,3.38
2023-03-12T00:06:12.415Z,7.50
2023-03-12T00:08:40.206Z,9.60
2023-03-12T00:11:12.514Z,3.78
2023-03-12T00:13:39.881Z,3.40
2023-03-12T00:16:08.566Z,4.10
2023-03-12T00:18:35.164Z,3.45
2023-03-12T00:21:02.033Z,3.53
2023-03-12T00:23:28.599Z,3.30
2023-03-12T00:26:03.168Z,91.30
2023-03-12T00:28:30.094Z,3.10
2023-03-12T00:30:58.249Z,3.97
2023-03-12T00:33:26.029Z,4.00
2023-03-12T00:35:53.220Z,4.53
2023-03-12T00:38:20.317Z,3.55
2023-03-12T00:40:52.425Z,3.65
2023-03-12T00:43:18.942Z,3.88
2023-03-12T00:45:48.143Z,3.60
2023-03-12T00:48:14.701Z,3.58
2023-03-12T00:50:41.219Z,3.17
2023-03-12T00:53:07.728Z,3.35
2023-03-12T00:55:37.143Z,3.50
2023-03-12T00:58:03.829Z,4.07
2023-03-12T01:00:30.449Z,3.65
2023-03-12T01:02:57.133Z,3.97
2023-03-12T01:05:23.770Z,2.67
2023-03-12T01:07:50.292Z,3.45
2023-03-12T01:10:18.193Z,3.47
2023-03-12T01:12:45.707Z,2.90
2023-03-12T01:15:15.389Z,3.38
2023-03-12T01:17:41.947Z,4.00
2023-03-12T01:20:09.647Z,3.67
2023-03-12T01:22:36.846Z,3.55
2023-03-12T01:25:03.519Z,3.78
2023-03-12T01:27:30.025Z,4.07
2023-03-12T01:29:56.848Z,3.95
2023-03-12T01:32:23.707Z,3.55
2023-03-12T01:34:50.331Z,2.75
2023-03-12T01:37:16.812Z,3.13
2023-03-12T01:39:43.396Z,3.55
2023-03-12T01:42:10.386Z,3.00
2023-03-12T01:44:50.982Z,3.70
2023-03-12T01:47:17.593Z,3.85
2023-03-12T01:49:45.478Z,3.13
2023-03-12T01:52:19.819Z,2.75
2023-03-12T01:54:51.166Z,2.90
2023-03-12T01:57:24.689Z,3.22
2023-03-12T01:59:58.973Z,3.13
2023-03-12T02:02:28.674Z,3.05
2023-03-12T02:05:04.169Z,3.47
2023-03-12T02:07:30.916Z,2.75
2023-03-12T02:09:57.788Z,3.40
2023-03-12T02:12:24.323Z,3.63
2023-03-12T02:14:50.954Z,3.20
2023-03-12T02:17:18.525Z,3.92
2023-03-12T02:20:07.577Z,3.20
2023-03-12T02:22:35.717Z,3.05
2023-03-12T02:25:41.878Z,3.55
2023-03-12T02:28:13.429Z,3.05
2023-03-12T02:30:46.485Z,2.88
2023-03-12T02:33:15.403Z,3.38
2023-03-12T02:35:42.978Z,3.30
2023-03-12T02:38:37.584Z,3.17
2023-03-12T02:41:19.364Z,2.45
2023-03-12T02:43:48.998Z,3.05
2023-03-12T02:46:15.945Z,2.92
2023-03-12T02:48:42.555Z,3.45
2023-03-12T02:51:09.487Z,2.60
2023-03-12T02:53:36.050Z,2.90
2023-03-12T02:56:03.458Z,3.28
2023-03-12T02:58:30.228Z,3.53
2023-03-12T03:00:57.019Z,2.67
2023-03-12T03:03:24.004Z,3.03
2023-03-12T03:05:51.928Z,3.03
2023-03-12T03:08:18.440Z,2.85
2023-03-12T03:10:44.993Z,2.80
2023-03-12T03:13:11.758Z,3.65
2023-03-12T03:15:38.907Z,3.47
2023-03-12T03:18:05.834Z,3.40
2023-03-12T03:20:32.442Z,2.70
2023-03-12T03:22:59.009Z,3.38
2023-03-12T03:25:25.731Z,2.80
2023-03-12T03:27:52.236Z,3.35
2023-03-12T03:30:19.094Z,3.10
2023-03-12T03:32:49.178Z,8.55
2023-03-12T03:35:17.230Z,3.28
2023-03-12T03:37:43.829Z,3.38
2023-03-12T03:40:12.334Z,2.70
2023-03-12T03:42:39.975Z,3.75
2023-03-12T03:45:07.932Z,2.78
2023-03-12T03:47:35.401Z,3.53
2023-03-12T03:50:02.486Z,2.50
2023-03-12T03:52:29.048Z,3.17
2023-03-12T03:54:56.976Z,3.75
2023-03-12T03:57:23.827Z,3.38
2023-03-12T03:59:50.459Z,3.10
2023-03-12T04:02:17.916Z,2.65
2023-03-12T04:04:44.591Z,3.38
2023-03-12T04:07:11.308Z,3.58
2023-03-12T04:09:38.523Z,3.00
2023-03-12T04:12:05.230Z,3.70
2023-03-12T04:14:32.765Z,3.47
2023-03-12T04:16:59.354Z,3.08
2023-03-12T04:19:25.863Z,2.45
2023-03-12T04:21:53.013Z,3.28
2023-03-12T04:24:20.389Z,3.30
2023-03-12T04:29:16.057Z,2.50
2023-03-12T04:31:42.795Z,3.30
2023-03-12T04:34:11.462Z,2.95
2023-03-12T04:36:40.126Z,3.10
2023-03-12T04:39:07.423Z,3.13
2023-03-12T04:41:34.956Z,3.38
2023-03-12T04:44:11.543Z,3.05
2023-03-12T04:46:39.419Z,3.33
2023-03-12T04:49:05.981Z,2.67
2023-03-12T04:51:35.119Z,3.70
2023-03-12T04:54:03.209Z,3.65
2023-03-12T04:56:30.129Z,3.85
2023-03-12T04:58:56.889Z,91.80
2023-03-12T05:01:29.216Z,32.80
2023-03-12T05:03:55.995Z,2.55
2023-03-12T05:06:23.665Z,3.03
2023-03-12T05:08:50.932Z,1.92
2023-03-12T05:11:18.552Z,2.58
2023-03-12T05:13:45.728Z,2.47
2023-03-12T05:16:13.282Z,2.85
2023-03-12T05:18:40.738Z,2.17
2023-03-12T05:21:13.192Z,2.90
2023-03-12T05:23:42.392Z,2.53
2023-03-12T05:26:17.518Z,3.28
2023-03-12T05:28:44.276Z,2.67
2023-03-12T05:31:13.024Z,2.05
2023-03-12T05:33:39.702Z,2.72
2023-03-12T05:36:06.966Z,2.28
2023-03-12T05:38:34.410Z,2.13
2023-03-12T05:41:00.976Z,2.08
2023-03-12T05:43:30.038Z,2.20
2023-03-12T05:46:05.829Z,2.60
2023-03-12T05:48:34.471Z,2.42
2023-03-12T05:51:02.506Z,2.30
2023-03-12T05:53:29.283Z,2.47
2023-03-12T05:55:55.902Z,2.50
2023-03-12T05:58:22.600Z,2.33
2023-03-12T06:00:49.911Z,1.98
2023-03-12T06:03:16.582Z,2.15
2023-03-12T06:05:44.435Z,2.17
2023-03-12T06:08:11.043Z,2.30
2023-03-12T06:10:39.215Z,2.50
2023-03-12T06:13:06.292Z,2.28
2023-03-12T06:15:33.175Z,2.38
2023-03-12T06:18:00.108Z,2.00
2023-03-12T06:20:27.196Z,2.17
2023-03-12T06:22:53.739Z,2.42
2023-03-12T06:25:20.696Z,2.20
2023-03-12T06:27:49.895Z,2.33
2023-03-12T06:30:17.747Z,1.83
2023-03-12T06:32:44.630Z,2.10
2023-03-12T06:35:11.270Z,1.80
2023-03-12T06:37:37.725Z,2.42
2023-03-12T06:40:05.141Z,2.55
2023-03-12T06:42:32.371Z,2.17
2023-03-12T06:44:58.912Z,1.98
2023-03-12T06:47:25.538Z,2.55
2023-03-12T06:49:52.103Z,1.92
2023-03-12T06:52:18.609Z,2.50
2023-03-12T06:54:45.101Z,2.47
2023-03-12T06:57:11.736Z,2.33
2023-03-12T06:59:38.311Z,1.98
2023-03-12T07:02:04.953Z,2.10
2023-03-12T07:04:31.557Z,2.15
2023-03-12T07:06:58.070Z,2.10
2023-03-12T07:09:24.693Z,2.22
2023-03-12T07:11:51.204Z,2.00
2023-03-12T07:14:19.568Z,2.40
2023-03-12T07:19:13.151Z,2.47
2023-03-12T07:21:39.716Z,2.22
2023-03-12T07:24:07.839Z,2.25
2023-03-12T07:26:35.561Z,2.22
2023-03-12T07:29:03.639Z,2.50
2023-03-12T07:31:30.293Z,2.70
2023-03-12T07:33:57.094Z,2.50
2023-03-12T07:36:24.088Z,2.58
2023-03-12T07:38:50.613Z,2.50
2023-03-12T07:41:17.130Z,2.50
2023-03-12T07:43:43.708Z,2.30
2023-03-12T07:46:10.305Z,3.08
2023-03-12T07:48:37.149Z,2.30
2023-03-12T07:51:03.788Z,2.03
2023-03-12T07:53:30.725Z,2.50
2023-03-12T07:55:59.477Z,2.83
2023-03-12T07:58:26.111Z,2.17
2023-03-12T08:00:55.443Z,2.42
2023-03-12T08:03:22.156Z,2.53
2023-03-12T08:06:00.244Z,2.72
2023-03-12T08:08:27.440Z,2.60
2023-03-12T08:10:54.435Z,2.20
2023-03-12T08:13:23.603Z,2.67
2023-03-12T08:15:51.578Z,2.25
2023-03-12T08:18:18.888Z,2.75
2023-03-12T08:20:46.664Z,2.65
2023-03-12T08:23:13.272Z,2.75
2023-03-12T08:25:39.827Z,3.05
2023-03-12T08:28:06.337Z,3.13
2023-03-12T08:30:32.898Z,3.08
2023-03-12T08:32:59.766Z,2.83
2023-03-12T08:35:26.360Z,3.15
2023-03-12T08:37:52.848Z,3.22
2023-03-12T08:40:19.439Z,3.53
2023-03-12T08:42:45.961Z,3.22
2023-03-12T08:45:13.005Z,2.78
2023-03-12T08:47:41.602Z,4.13
2023-03-12T08:50:09.904Z,3.72
2023-03-12T08:55:03.054Z,3.90
2023-03-12T08:57:29.696Z,3.45
2023-03-12T08:59:56.336Z,4.05
2023-03-12T09:02:23.159Z,4.80
2023-03-12T09:04:50.166Z,4.38
2023-03-12T09:07:19.881Z,4.55
2023-03-12T09:09:46.661Z,4.28
2023-03-12T09:12:13.469Z,4.78
2023-03-12T09:15:02.563Z,4.53
2023-03-12T09:17:29.615Z,4.00
2023-03-12T09:19:56.161Z,4.78
2023-03-12T09:22:22.910Z,4.35
2023-03-12T09:24:49.615Z,5.20
2023-03-12T09:27:16.221Z,4.95
2023-03-12T09:29:58.825Z,5.00
2023-03-12T09:32:27.602Z,4.90
2023-03-12T09:34:54.471Z,5.45
2023-03-12T09:37:23.957Z,5.78
2023-03-12T09:39:51.593Z,4.43
2023-03-12T09:42:41.335Z,5.10
2023-03-12T09:45:12.502Z,4.88
2023-03-12T09:47:51.277Z,5.45
2023-03-12T09:50:26.800Z,5.00
2023-03-12T09:52:58.305Z,5.30
2023-03-12T09:55:25.446Z,4.88
2023-03-12T09:57:52.788Z,4.78
2023-03-12T10:00:24.626Z,4.30
2023-03-12T10:03:03.435Z,5.18
2023-03-12T10:05:55.344Z,4.82
2023-03-12T10:08:46.483Z,5.47
2023-03-12T10:11:39.169Z,5.18
2023-03-12T10:14:23.773Z,4.43
2023-03-12T10:17:06.967Z,6.13
2023-03-12T10:20:06.089Z,5.07
2023-03-12T10:22:54.224Z,22.95
2023-03-12T10:25:42.527Z,39.40
2023-03-12T10:28:21.378Z,58.78
2023-03-12T10:30:55.594Z,105.30
2023-03-12T10:33:26.062Z,140.85
2023-03-12T10:35:53.015Z,67.38
2023-03-12T10:38:30.043Z,45.35
2023-03-12T10:40:56.576Z,47.88
2023-03-12T10:43:23.277Z,46.65
2023-03-12T10:46:05.991Z,51.30
2023-03-12T10:48:32.766Z,86.13
2023-03-12T10:51:11.050Z,125.63
2023-03-12T10:53:50.202Z,122.50
2023-03-12T10:56:18.578Z,131.55
2023-03-12T10:58:50.621Z,83.70
2023-03-12T11:01:29.198Z,111.07
2023-03-12T11:04:30.409Z,107.78
2023-03-12T11:07:07.958Z,116.75
2023-03-12T11:09:34.557Z,124.45
2023-03-12T11:12:01.502Z,132.40
2023-03-12T11:14:29.594Z,128.25
2023-03-12T11:16:57.178Z,130.27
2023-03-12T11:19:34.260Z,100.43
2023-03-12T11:22:08.052Z,150.88
2023-03-12T11:24:35.078Z,175.45
2023-03-12T11:27:15.853Z,200.23
2023-03-12T11:29:45.629Z,172.70
2023-03-12T11:32:24.493Z,154.50
2023-03-12T11:34:52.655Z,147.10
2023-03-12T11:40:00.275Z,157.23
2023-03-12T11:42:36.350Z,165.48
2023-03-12T11:45:27.805Z,221.55
2023-03-12T11:47:57.288Z,278.88
2023-03-12T11:50:30.690Z,324.83
2023-03-12T11:53:02.935Z,368.95
2023-03-12T11:56:01.870Z,237.88
2023-03-12T11:58:53.172Z,249.93
2023-03-12T12:01:41.461Z,45.97
2023-03-12T12:04:49.440Z,65.22
2023-03-12T12:07:37.795Z,77.18
2023-03-12T12:10:27.481Z,335.17
2023-03-12T12:13:23.840Z,193.93
2023-03-12T12:16:07.378Z,202.43
2023-03-12T12:18:41.448Z,0.73
2023-03-12T12:21:16.956Z,0.90
2023-03-12T12:23:49.118Z,0.75
2023-03-12T12:26:41.173Z,0.60
2023-03-12T12:29:51.290Z,19.98
2023-03-12T12:32:26.772Z,140.80
2023-03-12T12:35:02.639Z,4.90
2023-03-12T12:37:56.598Z,0.85
2023-03-12T12:40:41.379Z,0.63
2023-03-12T12:43:19.527Z,0.60
2023-03-12T12:45:46.847Z,0.95
2023-03-12T12:48:18.380Z,1.08
2023-03-12T12:50:45.786Z,1.35
2023-03-12T12:53:37.451Z,0.90
2023-03-12T12:56:32.491Z,1.23
2023-03-12T12:59:34.869Z,1.17
2023-03-12T13:02:03.109Z,1.02
2023-03-12T13:04:37.857Z,0.85
2023-03-12T13:07:27.576Z,1.33
2023-03-12T13:09:56.718Z,1.20
2023-03-12T13:12:42.830Z,0.93
2023-03-12T13:15:27.869Z,1.00
2023-03-12T13:18:26.499Z,1.45
2023-03-12T13:20:52.897Z,0.95
2023-03-12T13:23:36.935Z,1.40
2023-03-12T13:26:07.786Z,0.90
2023-03-12T13:29:06.169Z,1.27
2023-03-12T13:31:37.279Z,0.95
2023-03-12T13:34:08.139Z,1.20
2023-03-12T13:36:38.110Z,1.42
2023-03-12T13:39:07.699Z,1.17
2023-03-12T13:41:41.227Z,0.90
2023-03-12T13:44:22.997Z,0.90
2023-03-12T13:47:11.003Z,0.88
2023-03-12T13:49:52.965Z,1.10
2023-03-12T13:52:31.070Z,1.02
2023-03-12T13:55:07.870Z,1.23
2023-03-12T13:57:45.411Z,1.50
2023-03-12T14:00:41.958Z,1.10
2023-03-12T14:03:40.498Z,1.08
2023-03-12T14:06:09.348Z,0.90
2023-03-12T14:08:51.228Z,1.42
2023-03-12T14:11:42.277Z,1.10
2023-03-12T14:14:24.740Z,1.10
2023-03-12T14:16:53.043Z,1.75
2023-03-12T14:19:24.206Z,1.70
2023-03-12T14:21:52.835Z,1.05
2023-03-12T14:24:23.885Z,1.15
2023-03-12T14:26:50.891Z,1.25
2023-03-12T14:29:24.559Z,1.77
2023-03-12T14:31:52.589Z,1.00
2023-03-12T14:34:21.826Z,1.25
2023-03-12T14:37:05.914Z,1.02
2023-03-12T14:39:57.572Z,0.95
2023-03-12T14:42:33.535Z,1.20
2023-03-12T14:45:13.150Z,1.60
2023-03-12T14:47:44.833Z,1.00
2023-03-12T14:50:24.061Z,1.10
2023-03-12T14:52:51.254Z,1.60
2023-03-12T14:55:23.131Z,1.20
2023-03-12T14:58:05.760Z,1.13
2023-03-12T15:00:33.498Z,1.13
2023-03-12T15:03:05.889Z,1.40
2023-03-12T15:05:34.597Z,0.95
2023-03-12T15:08:03.545Z,1.10
2023-03-12T15:10:31.429Z,1.20
2023-03-12T15:13:00.124Z,1.27
2023-03-12T15:15:39.160Z,1.13
2023-03-12T15:18:16.417Z,1.45
2023-03-12T15:20:43.551Z,1.33
2023-03-12T15:23:13.203Z,1.27
2023-03-12T15:25:40.039Z,1.17
2023-03-12T15:28:16.303Z,1.10
2023-03-12T15:30:43.341Z,0.90
2023-03-12T15:33:16.020Z,1.15
2023-03-12T15:35:59.158Z,0.82
2023-03-12T15:38:26.287Z,1.42
2023-03-12T15:40:56.697Z,1.27
2023-03-12T15:43:24.546Z,1.10
2023-03-12T15:46:05.310Z,1.10
2023-03-12T15:48:36.708Z,0.73
2023-03-12T15:51:03.605Z,1.00
2023-03-12T15:53:32.313Z,8.70
2023-03-12T15:56:03.421Z,1.48
2023-03-12T15:58:34.582Z,0.82
2023-03-12T16:01:12.675Z,1.38
2023-03-12T16:03:40.168Z,0.82
2023-03-12T16:06:14.249Z,3.78
2023-03-12T16:08:44.891Z,1.00
2023-03-12T16:11:18.489Z,1.25
2023-03-12T16:13:47.615Z,0.80
2023-03-12T16:16:14.767Z,1.25
2023-03-12T16:18:42.483Z,1.25
2023-03-12T16:21:12.913Z,0.95
2023-03-12T16:23:42.627Z,1.20
2023-03-12T16:26:09.205Z,1.20
2023-03-12T16:28:36.102Z,1.00
2023-03-12T16:31:02.752Z,1.25
2023-03-12T16:33:29.559Z,1.30
2023-03-12T16:35:56.225Z,1.42
2023-03-12T16:38:23.134Z,1.60
2023-03-12T16:40:50.976Z,1.08
2023-03-12T16:43:22.545Z,1.23
2023-03-12T16:45:50.812Z,2.08
2023-03-12T16:48:24.068Z,1.60
2023-03-12T16:50:52.820Z,1.30
2023-03-12T16:53:19.496Z,1.30
2023-03-12T16:56:08.237Z,1.30
2023-03-12T16:58:36.325Z,1.40
2023-03-12T17:01:03.081Z,1.25
2023-03-12T17:03:38.392Z,1.88
2023-03-12T17:06:06.355Z,1.77
2023-03-12T17:10:59.975Z,1.17
2023-03-12T17:13:28.106Z,1.88
2023-03-12T17:15:55.673Z,1.63
2023-03-12T17:18:22.626Z,1.23
2023-03-12T17:20:51.598Z,0.93
2023-03-12T17:23:18.499Z,1.45
2023-03-12T17:25:45.358Z,1.25
2023-03-12T17:28:13.613Z,1.50
2023-03-12T17:30:40.175Z,1.73
2023-03-12T17:33:09.444Z,2.80
2023-03-12T17:35:36.439Z,1.48
2023-03-12T17:38:03.185Z,1.52
2023-03-12T17:40:29.687Z,1.42
2023-03-12T17:42:56.477Z,2.15
2023-03-12T17:45:23.555Z,1.23
2023-03-12T17:47:50.123Z,1.73
2023-03-12T17:50:17.196Z,1.38
2023-03-12T17:52:43.774Z,1.60
2023-03-12T17:55:11.831Z,1.40
2023-03-12T18:00:11.533Z,1.50
2023-03-12T18:02:40.324Z,1.20
2023-03-12T18:07:34.283Z,1.23
2023-03-12T18:10:00.848Z,1.20
2023-03-12T18:12:27.360Z,1.60
2023-03-12T18:14:53.931Z,1.30
2023-03-12T18:17:20.462Z,1.85
2023-03-12T18:19:46.964Z,1.25
2023-03-12T18:22:14.704Z,1.27
2023-03-12T18:24:42.209Z,1.20
2023-03-12T18:27:08.708Z,1.55
2023-03-12T18:29:36.749Z,1.80
2023-03-12T18:34:29.825Z,1.90
2023-03-12T18:36:56.305Z,1.55
2023-03-12T18:39:23.493Z,1.70
2023-03-12T18:41:50.035Z,1.95
2023-03-12T18:44:16.557Z,1.48
2023-03-12T18:46:43.145Z,1.40
2023-03-12T18:49:12.135Z,1.63
2023-03-12T18:51:38.705Z,1.58
2023-03-12T18:54:05.266Z,2.15
2023-03-12T18:56:31.803Z,1.75
2023-03-12T18:58:58.310Z,1.98
2023-03-12T19:01:26.024Z,1.75
2023-03-12T19:03:52.653Z,1.52
2023-03-12T19:06:19.192Z,2.10
2023-03-12T19:08:47.885Z,1.63
2023-03-12T19:11:15.746Z,1.38
2023-03-12T19:13:42.428Z,1.80
2023-03-12T19:16:10.901Z,2.00
2023-03-12T19:18:38.775Z,1.63
2023-03-12T19:21:07.691Z,1.90
2023-03-12T19:23:34.354Z,1.35
2023-03-12T19:26:00.817Z,1.48
2023-03-12T19:28:27.363Z,1.20
2023-03-12T19:31:00.447Z,1.33
2023-03-12T19:33:28.410Z,1.75
2023-03-12T19:35:55.355Z,1.52
2023-03-12T19:38:21.909Z,1.20
2023-03-12T19:40:54.902Z,1.05
2023-03-12T19:43:22.071Z,1.08
2023-03-12T19:45:48.778Z,1.63
2023-03-12T19:48:15.381Z,1.30
2023-03-12T19:50:44.726Z,1.60
2023-03-12T19:53:13.842Z,1.20
2023-03-12T19:55:40.860Z,1.27
2023-03-12T19:58:08.385Z,1.40
2023-03-12T20:00:34.941Z,1.70
2023-03-12T20:03:02.145Z,1.35
2023-03-12T20:05:30.435Z,2.17
2023-03-12T20:07:56.925Z,1.67
2023-03-12T20:10:23.456Z,1.73
2023-03-12T20:12:50.696Z,1.25
2023-03-12T20:15:17.340Z,1.30
2023-03-12T20:17:43.851Z,1.42
2023-03-12T20:20:11.697Z,1.88
2023-03-12T20:22:38.725Z,1.23
2023-03-12T20:25:06.323Z,2.05
2023-03-12T20:27:34.239Z,2.15
2023-03-12T20:30:00.811Z,1.85
2023-03-12T20:32:27.523Z,1.42
2023-03-12T20:34:54.125Z,1.27
2023-03-12T20:37:31.884Z,1.33
2023-03-12T20:39:58.495Z,1.60
2023-03-12T20:42:25.028Z,1.75
2023-03-12T20:44:51.713Z,2.45
2023-03-12T20:47:18.234Z,1.42
2023-03-12T20:49:44.756Z,1.70
2023-03-12T20:52:11.259Z,1.13
2023-03-12T20:54:37.770Z,1.75
2023-03-12T20:57:05.138Z,1.73
2023-03-12T20:59:46.361Z,1.42
2023-03-12T21:02:14.445Z,1.50
2023-03-12T21:07:09.207Z,1.52
2023-03-12T21:09:36.089Z,1.40
2023-03-12T21:12:02.642Z,1.45
2023-03-12T21:14:29.226Z,1.38
2023-03-12T21:16:56.244Z,1.70
2023-03-12T21:19:23.111Z,1.30
2023-03-12T21:21:49.631Z,1.15
2023-03-12T21:24:16.175Z,1.25
2023-03-12T21:26:42.676Z,1.70
2023-03-12T21:29:09.326Z,2.08
2023-03-12T21:31:35.958Z,1.75
2023-03-12T21:34:02.460Z,1.13
2023-03-12T21:36:29.345Z,1.08
2023-03-12T21:38:56.340Z,1.88
2023-03-12T21:41:23.730Z,1.13
2023-03-12T21:43:50.264Z,1.30
2023-03-12T21:46:19.280Z,2.28
2023-03-12T21:48:47.421Z,1.55
2023-03-12T21:51:16.360Z,1.95
2023-03-12T21:53:43.163Z,1.50
2023-03-12T21:56:09.848Z,1.30
2023-03-12T21:58:36.575Z,1.65
2023-03-12T22:01:08.753Z,1.38
2023-03-12T22:03:36.319Z,1.30
2023-03-12T22:06:03.188Z,1.45
2023-03-12T22:08:29.879Z,1.45
2023-03-12T22:10:56.518Z,1.38
2023-03-12T22:13:23.036Z,1.23
2023-03-12T22:15:54.599Z,1.45
2023-03-12T22:18:21.819Z,1.58
2023-03-12T22:21:00.652Z,1.10
2023-03-12T22:23:27.285Z,1.52
2023-03-12T22:25:53.921Z,1.80
2023-03-12T22:28:20.871Z,2.00
2023-03-12T22:30:47.775Z,1.80
2023-03-12T22:33:14.330Z,2.20
2023-03-12T22:35:48.057Z,1.38
2023-03-12T22:38:16.683Z,1.45
2023-03-12T22:40:43.311Z,1.40
2023-03-12T22:43:09.911Z,1.88
2023-03-12T22:45:36.543Z,1.70
2023-03-12T22:48:03.522Z,1.48
2023-03-12T22:50:30.032Z,1.60
2023-03-12T22:52:56.785Z,1.85
2023-03-12T22:55:23.346Z,1.33
2023-03-12T22:57:50.100Z,1.70
2023-03-12T23:00:22.597Z,1.80
2023-03-12T23:02:50.172Z,1.83
2023-03-12T23:05:16.693Z,1.63
2023-03-12T23:07:43.330Z,2.08
2023-03-12T23:10:10.219Z,1.65
2023-03-12T23:12:36.751Z,1.88
2023-03-12T23:15:03.678Z,2.20
2023-03-12T23:17:30.171Z,1.92
2023-03-12T23:19:56.677Z,1.55
2023-03-12T23:22:23.203Z,1.83
2023-03-12T23:24:49.808Z,2.25
2023-03-12T23:27:16.545Z,1.83
2023-03-12T23:29:43.021Z,1.88
2023-03-12T23:32:09.634Z,1.38
2023-03-12T23:34:36.159Z,1.85
2023-03-12T23:37:03.043Z,2.17
2023-03-12T23:39:30.581Z,1.90
2023-03-12T23:41:57.751Z,1.77
2023-03-12T23:44:24.739Z,1.63
2023-03-12T23:46:51.226Z,1.73
2023-03-12T23:49:17.817Z,2.17
2023-03-12T23:51:44.426Z,1.92
2023-03-12T23:54:11.237Z,1.65
2023-03-12T23:56:39.419Z,1.83
2023-03-12T23:59:07.933Z,2.28
